sensor_id;sensor_type;location;lat;lon;timestamp;P1;durP1;ratioP1;P2;durP2;ratioP2
15096;SDS011;7649;52.084;7.478;2023-05-10T00:02:10;4.47;;;4.17;;
15096;SDS011;7649;52.084;7.478;2023-05-10T00:04:39;3.93;;;3.73;;
15096;SDS011;7649;52.084;7.478;2023-05-10T00:07:07;4.80;;;4.50;;
15096;SDS011;7649;52.084;7.478;2023-05-10T00:09:36;4.47;;;4.17;;
15096;SDS011;7649;52.084;7.478;2023-05-10T00:12:07;4.43;;;4.13;;
15096;SDS011;7649;52.084;7.478;2023-05-10T00:14:36;4.53;;;4.23;;
15096;SDS011;7649;52.084;7.478;2023-05-10T00:17:04;5.17;;;4.60;;
15096;SDS011;7649;52.084;7.478;2023-05-10T00:19:33;4.83;;;4.53;;
15096;SDS011;7649;52.084;7.478;2023-05-10T00:22:01;5.30;;;4.97;;
15096;SDS011;7649;52.084;7.478;2023-05-10T00:24:31;5.60;;;5.20;;
15096;SDS011;7649;52.084;7.478;2023-05-10T00:27:00;5.57;;;5.07;;
15096;SDS011;7649;52.084;7.478;2023-05-10T00:29:31;5.67;;;5.27;;
15096;SDS011;7649;52.084;7.478;2023-05-10T00:32:02;5.37;;;4.87;;
15096;SDS011;7649;52.084;7.478;2023-05-10T00:34:31;5.37;;;4.97;;
15096;SDS011;7649;52.084;7.478;2023-05-10T00:37:00;5.27;;;4.97;;
15096;SDS011;7649;52.084;7.478;2023-05-10T00:39:29;5.80;;;5.40;;
15096;SDS011;7649;52.084;7.478;2023-05-10T00:41:57;5.57;;;5.07;;
15096;SDS011;7649;52.084;7.478;2023-05-10T00:44:27;4.23;;;3.97;;
15096;SDS011;7649;52.084;7.478;2023-05-10T00:46:58;4.40;;;4.10;;
15096;SDS011;7649;52.084;7.478;2023-05-10T00:49:27;3.40;;;3.20;;
15096;SDS011;7649;52.084;7.478;2023-05-10T00:51:57;3.30;;;3.10;;
15096;SDS011;7649;52.084;7.478;2023-05-10T00:54:25;3.80;;;3.60;;
15096;SDS011;7649;52.084;7.478;2023-05-10T00:56:55;3.77;;;3.57;;
15096;SDS011;7649;52.084;7.478;2023-05-10T00:59:23;3.47;;;3.27;;
15096;SDS011;7649;52.084;7.478;2023-05-10T01:01:53;3.80;;;3.50;;
15096;SDS011;7649;52.084;7.478;2023-05-10T01:04:24;3.03;;;2.83;;
15096;SDS011;7649;52.084;7.478;2023-05-10T01:06:54;2.60;;;2.50;;
15096;SDS011;7649;52.084;7.478;2023-05-10T01:09:22;2.40;;;2.20;;
15096;SDS011;7649;52.084;7.478;2023-05-10T01:11:53;4.43;;;1.90;;
15096;SDS011;7649;52.084;7.478;2023-05-10T01:14:22;1.57;;;1.50;;
15096;SDS011;7649;52.084;7.478;2023-05-10T01:16:51;2.83;;;1.80;;
15096;SDS011;7649;52.084;7.478;2023-05-10T01:19:22;1.60;;;1.50;;
15096;SDS011;7649;52.084;7.478;2023-05-10T01:21:53;2.20;;;2.00;;
15096;SDS011;7649;52.084;7.478;2023-05-10T01:24:46;2.13;;;2.03;;
15096;SDS011;7649;52.084;7.478;2023-05-10T01:27:25;2.63;;;2.43;;
15096;SDS011;7649;52.084;7.478;2023-05-10T01:30:08;2.80;;;2.60;;
15096;SDS011;7649;52.084;7.478;2023-05-10T01:32:44;3.20;;;3.00;;
15096;SDS011;7649;52.084;7.478;2023-05-10T01:35:19;3.37;;;3.07;;
15096;SDS011;7649;52.084;7.478;2023-05-10T01:37:52;2.80;;;2.60;;
15096;SDS011;7649;52.084;7.478;2023-05-10T01:40:29;3.53;;;2.30;;
15096;SDS011;7649;52.084;7.478;2023-05-10T01:43:00;3.70;;;2.43;;
15096;SDS011;7649;52.084;7.478;2023-05-10T01:45:31;2.30;;;2.10;;
15096;SDS011;7649;52.084;7.478;2023-05-10T01:48:05;3.33;;;2.00;;
15096;SDS011;7649;52.084;7.478;2023-05-10T01:50:35;3.13;;;2.10;;
15096;SDS011;7649;52.084;7.478;2023-05-10T01:53:05;2.00;;;1.90;;
15096;SDS011;7649;52.084;7.478;2023-05-10T01:55:36;2.30;;;2.13;;
15096;SDS011;7649;52.084;7.478;2023-05-10T01:58:13;9.10;;;2.43;;
15096;SDS011;7649;52.084;7.478;2023-05-10T02:00:42;2.47;;;2.30;;
15096;SDS011;7649;52.084;7.478;2023-05-10T02:03:13;2.63;;;2.43;;
15096;SDS011;7649;52.084;7.478;2023-05-10T02:05:43;2.77;;;2.50;;
15096;SDS011;7649;52.084;7.478;2023-05-10T02:08:13;3.00;;;2.80;;
15096;SDS011;7649;52.084;7.478;2023-05-10T02:10:42;3.10;;;2.90;;
15096;SDS011;7649;52.084;7.478;2023-05-10T02:13:12;3.40;;;3.20;;
15096;SDS011;7649;52.084;7.478;2023-05-10T02:15:43;3.60;;;3.40;;
15096;SDS011;7649;52.084;7.478;2023-05-10T02:18:16;3.60;;;3.40;;
15096;SDS011;7649;52.084;7.478;2023-05-10T02:20:45;3.90;;;3.60;;
15096;SDS011;7649;52.084;7.478;2023-05-10T02:23:19;3.80;;;3.50;;
15096;SDS011;7649;52.084;7.478;2023-05-10T02:25:48;3.77;;;3.50;;
15096;SDS011;7649;52.084;7.478;2023-05-10T02:28:18;3.73;;;3.53;;
15096;SDS011;7649;52.084;7.478;2023-05-10T02:30:47;4.33;;;4.03;;
15096;SDS011;7649;52.084;7.478;2023-05-10T02:33:18;4.23;;;3.90;;
15096;SDS011;7649;52.084;7.478;2023-05-10T02:35:49;4.10;;;3.70;;
15096;SDS011;7649;52.084;7.478;2023-05-10T02:38:18;3.93;;;3.67;;
15096;SDS011;7649;52.084;7.478;2023-05-10T02:40:48;3.87;;;3.57;;
15096;SDS011;7649;52.084;7.478;2023-05-10T02:43:17;3.70;;;3.40;;
15096;SDS011;7649;52.084;7.478;2023-05-10T02:45:46;4.33;;;4.03;;
15096;SDS011;7649;52.084;7.478;2023-05-10T02:48:20;4.10;;;3.83;;
15096;SDS011;7649;52.084;7.478;2023-05-10T02:50:49;4.10;;;3.80;;
15096;SDS011;7649;52.084;7.478;2023-05-10T02:53:20;4.27;;;3.97;;
15096;SDS011;7649;52.084;7.478;2023-05-10T02:55:51;4.60;;;4.30;;
15096;SDS011;7649;52.084;7.478;2023-05-10T02:58:20;4.23;;;3.93;;
15096;SDS011;7649;52.084;7.478;2023-05-10T03:00:50;4.73;;;4.33;;
15096;SDS011;7649;52.084;7.478;2023-05-10T03:03:20;5.43;;;4.23;;
15096;SDS011;7649;52.084;7.478;2023-05-10T03:05:49;4.23;;;3.93;;
15096;SDS011;7649;52.084;7.478;2023-05-10T03:08:20;4.60;;;4.30;;
15096;SDS011;7649;52.084;7.478;2023-05-10T03:10:52;4.30;;;4.00;;
15096;SDS011;7649;52.084;7.478;2023-05-10T03:13:28;4.63;;;4.23;;
15096;SDS011;7649;52.084;7.478;2023-05-10T03:15:59;4.93;;;4.53;;
15096;SDS011;7649;52.084;7.478;2023-05-10T03:18:33;4.60;;;4.30;;
15096;SDS011;7649;52.084;7.478;2023-05-10T03:21:05;4.30;;;4.00;;
15096;SDS011;7649;52.084;7.478;2023-05-10T03:23:38;4.70;;;4.40;;
15096;SDS011;7649;52.084;7.478;2023-05-10T03:26:09;5.60;;;5.10;;
15096;SDS011;7649;52.084;7.478;2023-05-10T03:28:41;4.93;;;4.53;;
15096;SDS011;7649;52.084;7.478;2023-05-10T03:31:09;4.90;;;4.60;;
15096;SDS011;7649;52.084;7.478;2023-05-10T03:33:46;5.43;;;4.93;;
15096;SDS011;7649;52.084;7.478;2023-05-10T03:36:15;5.30;;;4.90;;
15096;SDS011;7649;52.084;7.478;2023-05-10T03:38:44;6.37;;;5.30;;
15096;SDS011;7649;52.084;7.478;2023-05-10T03:41:12;5.43;;;4.90;;
15096;SDS011;7649;52.084;7.478;2023-05-10T03:43:42;5.77;;;5.17;;
15096;SDS011;7649;52.084;7.478;2023-05-10T03:46:10;5.47;;;5.07;;
15096;SDS011;7649;52.084;7.478;2023-05-10T03:48:41;6.70;;;5.80;;
15096;SDS011;7649;52.084;7.478;2023-05-10T03:51:10;5.67;;;5.17;;
15096;SDS011;7649;52.084;7.478;2023-05-10T03:53:39;6.03;;;5.53;;
15096;SDS011;7649;52.084;7.478;2023-05-10T03:56:07;6.30;;;5.80;;
15096;SDS011;7649;52.084;7.478;2023-05-10T03:58:36;6.57;;;5.97;;
15096;SDS011;7649;52.084;7.478;2023-05-10T04:01:04;6.00;;;5.50;;
15096;SDS011;7649;52.084;7.478;2023-05-10T04:03:33;6.23;;;5.63;;
15096;SDS011;7649;52.084;7.478;2023-05-10T04:06:03;7.27;;;6.57;;
15096;SDS011;7649;52.084;7.478;2023-05-10T04:08:33;6.40;;;5.90;;
15096;SDS011;7649;52.084;7.478;2023-05-10T04:11:05;6.60;;;6.00;;
15096;SDS011;7649;52.084;7.478;2023-05-10T04:13:35;7.53;;;6.93;;
15096;SDS011;7649;52.084;7.478;2023-05-10T04:16:04;7.27;;;6.67;;
15096;SDS011;7649;52.084;7.478;2023-05-10T04:18:33;6.87;;;6.13;;
15096;SDS011;7649;52.084;7.478;2023-05-10T04:21:01;7.20;;;6.60;;
15096;SDS011;7649;52.084;7.478;2023-05-10T04:23:30;7.63;;;6.90;;
15096;SDS011;7649;52.084;7.478;2023-05-10T04:26:00;7.23;;;6.63;;
15096;SDS011;7649;52.084;7.478;2023-05-10T04:28:29;7.03;;;6.53;;
15096;SDS011;7649;52.084;7.478;2023-05-10T04:31:01;7.37;;;6.50;;
15096;SDS011;7649;52.084;7.478;2023-05-10T04:33:31;7.77;;;7.07;;
15096;SDS011;7649;52.084;7.478;2023-05-10T04:36:00;7.53;;;6.73;;
15096;SDS011;7649;52.084;7.478;2023-05-10T04:38:29;7.97;;;7.17;;
15096;SDS011;7649;52.084;7.478;2023-05-10T04:41:04;7.80;;;7.07;;
15096;SDS011;7649;52.084;7.478;2023-05-10T04:43:33;8.50;;;7.70;;
15096;SDS011;7649;52.084;7.478;2023-05-10T04:46:04;7.83;;;7.03;;
15096;SDS011;7649;52.084;7.478;2023-05-10T04:48:33;8.13;;;7.43;;
15096;SDS011;7649;52.084;7.478;2023-05-10T04:51:02;7.50;;;6.77;;
15096;SDS011;7649;52.084;7.478;2023-05-10T04:53:31;9.27;;;7.50;;
15096;SDS011;7649;52.084;7.478;2023-05-10T04:56:02;10.07;;;7.63;;
15096;SDS011;7649;52.084;7.478;2023-05-10T04:58:32;8.53;;;7.73;;
15096;SDS011;7649;52.084;7.478;2023-05-10T05:01:05;9.10;;;8.20;;
15096;SDS011;7649;52.084;7.478;2023-05-10T05:03:36;9.07;;;8.20;;
15096;SDS011;7649;52.084;7.478;2023-05-10T05:06:05;9.37;;;8.47;;
15096;SDS011;7649;52.084;7.478;2023-05-10T05:08:33;10.63;;;8.07;;
15096;SDS011;7649;52.084;7.478;2023-05-10T05:11:03;9.97;;;9.03;;
15096;SDS011;7649;52.084;7.478;2023-05-10T05:13:33;10.50;;;9.40;;
15096;SDS011;7649;52.084;7.478;2023-05-10T05:16:02;13.27;;;11.40;;
15096;SDS011;7649;52.084;7.478;2023-05-10T05:18:30;11.10;;;10.00;;
15096;SDS011;7649;52.084;7.478;2023-05-10T05:20:59;11.97;;;10.67;;
15096;SDS011;7649;52.084;7.478;2023-05-10T05:23:28;11.67;;;10.37;;
15096;SDS011;7649;52.084;7.478;2023-05-10T05:25:57;12.37;;;11.03;;
15096;SDS011;7649;52.084;7.478;2023-05-10T05:28:25;16.20;;;12.60;;
15096;SDS011;7649;52.084;7.478;2023-05-10T05:31:05;18.10;;;14.20;;
15096;SDS011;7649;52.084;7.478;2023-05-10T05:33:34;16.47;;;14.67;;
15096;SDS011;7649;52.084;7.478;2023-05-10T05:36:02;17.37;;;14.83;;
15096;SDS011;7649;52.084;7.478;2023-05-10T05:38:31;19.43;;;15.73;;
15096;SDS011;7649;52.084;7.478;2023-05-10T05:40:59;17.93;;;15.00;;
15096;SDS011;7649;52.084;7.478;2023-05-10T05:43:28;20.47;;;16.37;;
15096;SDS011;7649;52.084;7.478;2023-05-10T05:45:56;21.40;;;17.63;;
15096;SDS011;7649;52.084;7.478;2023-05-10T05:48:26;19.87;;;17.60;;
15096;SDS011;7649;52.084;7.478;2023-05-10T05:50:55;22.80;;;17.57;;
15096;SDS011;7649;52.084;7.478;2023-05-10T05:53:23;25.00;;;18.60;;
15096;SDS011;7649;52.084;7.478;2023-05-10T05:55:53;25.80;;;18.80;;
15096;SDS011;7649;52.084;7.478;2023-05-10T05:58:21;23.40;;;18.57;;
15096;SDS011;7649;52.084;7.478;2023-05-10T06:00:50;25.70;;;19.70;;
15096;SDS011;7649;52.084;7.478;2023-05-10T06:03:19;26.90;;;19.87;;
15096;SDS011;7649;52.084;7.478;2023-05-10T06:05:49;26.93;;;20.43;;
15096;SDS011;7649;52.084;7.478;2023-05-10T06:08:18;30.77;;;20.83;;
15096;SDS011;7649;52.084;7.478;2023-05-10T06:10:46;29.47;;;21.60;;
15096;SDS011;7649;52.084;7.478;2023-05-10T06:13:17;29.37;;;21.23;;
15096;SDS011;7649;52.084;7.478;2023-05-10T06:15:46;27.90;;;21.30;;
15096;SDS011;7649;52.084;7.478;2023-05-10T06:18:14;26.67;;;20.37;;
15096;SDS011;7649;52.084;7.478;2023-05-10T06:20:44;31.97;;;21.70;;
15096;SDS011;7649;52.084;7.478;2023-05-10T06:23:15;28.30;;;21.70;;
15096;SDS011;7649;52.084;7.478;2023-05-10T06:25:43;28.83;;;22.00;;
15096;SDS011;7649;52.084;7.478;2023-05-10T06:28:11;28.07;;;22.03;;
15096;SDS011;7649;52.084;7.478;2023-05-10T06:30:40;27.50;;;21.23;;
15096;SDS011;7649;52.084;7.478;2023-05-10T06:33:09;29.13;;;22.37;;
15096;SDS011;7649;52.084;7.478;2023-05-10T06:35:38;30.20;;;22.80;;
15096;SDS011;7649;52.084;7.478;2023-05-10T06:38:07;27.23;;;22.00;;
15096;SDS011;7649;52.084;7.478;2023-05-10T06:40:38;28.97;;;22.60;;
15096;SDS011;7649;52.084;7.478;2023-05-10T06:43:09;30.33;;;23.17;;
15096;SDS011;7649;52.084;7.478;2023-05-10T06:45:37;31.47;;;23.13;;
15096;SDS011;7649;52.084;7.478;2023-05-10T06:48:05;32.60;;;23.27;;
15096;SDS011;7649;52.084;7.478;2023-05-10T06:50:34;33.03;;;22.57;;
15096;SDS011;7649;52.084;7.478;2023-05-10T06:53:02;29.57;;;23.23;;
15096;SDS011;7649;52.084;7.478;2023-05-10T06:55:30;29.03;;;21.67;;
15096;SDS011;7649;52.084;7.478;2023-05-10T06:58:00;29.37;;;22.43;;
15096;SDS011;7649;52.084;7.478;2023-05-10T07:00:28;31.30;;;22.97;;
15096;SDS011;7649;52.084;7.478;2023-05-10T07:02:57;31.90;;;22.90;;
15096;SDS011;7649;52.084;7.478;2023-05-10T07:05:25;30.80;;;23.03;;
15096;SDS011;7649;52.084;7.478;2023-05-10T07:07:55;32.40;;;24.47;;
15096;SDS011;7649;52.084;7.478;2023-05-10T07:10:23;28.87;;;22.70;;
15096;SDS011;7649;52.084;7.478;2023-05-10T07:12:52;30.87;;;23.90;;
15096;SDS011;7649;52.084;7.478;2023-05-10T07:15:22;31.70;;;23.00;;
15096;SDS011;7649;52.084;7.478;2023-05-10T07:17:50;30.63;;;24.47;;
15096;SDS011;7649;52.084;7.478;2023-05-10T07:20:19;30.40;;;23.63;;
15096;SDS011;7649;52.084;7.478;2023-05-10T07:22:47;31.03;;;23.43;;
15096;SDS011;7649;52.084;7.478;2023-05-10T07:25:15;30.87;;;23.63;;
15096;SDS011;7649;52.084;7.478;2023-05-10T07:27:44;29.53;;;23.97;;
15096;SDS011;7649;52.084;7.478;2023-05-10T07:30:14;31.83;;;23.33;;
15096;SDS011;7649;52.084;7.478;2023-05-10T07:32:44;29.17;;;23.70;;
15096;SDS011;7649;52.084;7.478;2023-05-10T07:35:12;32.83;;;24.40;;
15096;SDS011;7649;52.084;7.478;2023-05-10T07:37:41;31.47;;;25.03;;
15096;SDS011;7649;52.084;7.478;2023-05-10T07:40:09;31.27;;;25.03;;
15096;SDS011;7649;52.084;7.478;2023-05-10T07:42:37;30.57;;;24.87;;
15096;SDS011;7649;52.084;7.478;2023-05-10T07:45:06;32.17;;;24.80;;
15096;SDS011;7649;52.084;7.478;2023-05-10T07:47:35;33.90;;;23.67;;
15096;SDS011;7649;52.084;7.478;2023-05-10T07:50:05;27.87;;;23.73;;
15096;SDS011;7649;52.084;7.478;2023-05-10T07:52:34;28.67;;;23.60;;
15096;SDS011;7649;52.084;7.478;2023-05-10T07:55:02;28.60;;;23.27;;
15096;SDS011;7649;52.084;7.478;2023-05-10T07:57:30;27.23;;;22.60;;
15096;SDS011;7649;52.084;7.478;2023-05-10T07:59:58;29.30;;;23.63;;
15096;SDS011;7649;52.084;7.478;2023-05-10T08:02:27;27.67;;;22.43;;
15096;SDS011;7649;52.084;7.478;2023-05-10T08:04:55;26.33;;;22.53;;
15096;SDS011;7649;52.084;7.478;2023-05-10T08:07:25;26.57;;;21.53;;
15096;SDS011;7649;52.084;7.478;2023-05-10T08:09:53;29.67;;;22.80;;
15096;SDS011;7649;52.084;7.478;2023-05-10T08:12:21;28.27;;;22.73;;
15096;SDS011;7649;52.084;7.478;2023-05-10T08:14:50;26.77;;;23.20;;
15096;SDS011;7649;52.084;7.478;2023-05-10T08:17:18;28.47;;;22.47;;
15096;SDS011;7649;52.084;7.478;2023-05-10T08:19:49;27.10;;;22.07;;
15096;SDS011;7649;52.084;7.478;2023-05-10T08:22:17;28.23;;;23.03;;
15096;SDS011;7649;52.084;7.478;2023-05-10T08:24:47;27.30;;;22.73;;
15096;SDS011;7649;52.084;7.478;2023-05-10T08:27:15;27.67;;;22.37;;
15096;SDS011;7649;52.084;7.478;2023-05-10T08:29:43;30.47;;;22.10;;
15096;SDS011;7649;52.084;7.478;2023-05-10T08:32:15;27.73;;;21.93;;
15096;SDS011;7649;52.084;7.478;2023-05-10T08:34:44;27.53;;;22.47;;
15096;SDS011;7649;52.084;7.478;2023-05-10T08:37:12;26.33;;;21.13;;
15096;SDS011;7649;52.084;7.478;2023-05-10T08:39:40;26.63;;;21.13;;
15096;SDS011;7649;52.084;7.478;2023-05-10T08:42:10;26.20;;;21.10;;
15096;SDS011;7649;52.084;7.478;2023-05-10T08:44:39;23.20;;;20.47;;
15096;SDS011;7649;52.084;7.478;2023-05-10T08:47:07;25.63;;;21.10;;
15096;SDS011;7649;52.084;7.478;2023-05-10T08:49:37;28.07;;;20.43;;
15096;SDS011;7649;52.084;7.478;2023-05-10T08:52:05;24.13;;;18.67;;
15096;SDS011;7649;52.084;7.478;2023-05-10T08:54:34;25.93;;;19.23;;
15096;SDS011;7649;52.084;7.478;2023-05-10T08:57:02;27.73;;;20.47;;
15096;SDS011;7649;52.084;7.478;2023-05-10T08:59:32;24.17;;;19.60;;
15096;SDS011;7649;52.084;7.478;2023-05-10T09:02:01;25.90;;;18.57;;
15096;SDS011;7649;52.084;7.478;2023-05-10T09:04:30;23.83;;;18.17;;
15096;SDS011;7649;52.084;7.478;2023-05-10T09:06:59;23.47;;;17.50;;
15096;SDS011;7649;52.084;7.478;2023-05-10T09:09:27;23.57;;;17.37;;
15096;SDS011;7649;52.084;7.478;2023-05-10T09:11:55;21.73;;;17.33;;
15096;SDS011;7649;52.084;7.478;2023-05-10T09:14:24;25.27;;;17.83;;
15096;SDS011;7649;52.084;7.478;2023-05-10T09:16:54;23.17;;;17.57;;
15096;SDS011;7649;52.084;7.478;2023-05-10T09:19:22;20.77;;;17.00;;
15096;SDS011;7649;52.084;7.478;2023-05-10T09:21:51;20.33;;;16.30;;
15096;SDS011;7649;52.084;7.478;2023-05-10T09:24:19;21.50;;;16.80;;
15096;SDS011;7649;52.084;7.478;2023-05-10T09:26:47;20.27;;;15.47;;
15096;SDS011;7649;52.084;7.478;2023-05-10T09:29:16;23.40;;;16.10;;
15096;SDS011;7649;52.084;7.478;2023-05-10T09:31:45;22.03;;;17.63;;
15096;SDS011;7649;52.084;7.478;2023-05-10T09:34:18;20.67;;;17.10;;
15096;SDS011;7649;52.084;7.478;2023-05-10T09:36:51;21.50;;;16.87;;
15096;SDS011;7649;52.084;7.478;2023-05-10T09:39:19;24.27;;;18.40;;
15096;SDS011;7649;52.084;7.478;2023-05-10T09:41:48;24.80;;;17.50;;
15096;SDS011;7649;52.084;7.478;2023-05-10T09:44:16;25.03;;;19.07;;
15096;SDS011;7649;52.084;7.478;2023-05-10T09:46:49;23.90;;;18.00;;
15096;SDS011;7649;52.084;7.478;2023-05-10T09:49:20;21.83;;;18.63;;
15096;SDS011;7649;52.084;7.478;2023-05-10T09:51:59;23.20;;;17.10;;
15096;SDS011;7649;52.084;7.478;2023-05-10T09:54:27;19.60;;;17.17;;
15096;SDS011;7649;52.084;7.478;2023-05-10T09:56:56;22.47;;;17.53;;
15096;SDS011;7649;52.084;7.478;2023-05-10T09:59:24;21.00;;;17.00;;
15096;SDS011;7649;52.084;7.478;2023-05-10T10:01:55;25.03;;;16.87;;
15096;SDS011;7649;52.084;7.478;2023-05-10T10:04:25;20.20;;;16.53;;
15096;SDS011;7649;52.084;7.478;2023-05-10T10:07:00;21.57;;;18.20;;
15096;SDS011;7649;52.084;7.478;2023-05-10T10:09:29;21.00;;;16.53;;
15096;SDS011;7649;52.084;7.478;2023-05-10T10:11:57;20.73;;;16.00;;
15096;SDS011;7649;52.084;7.478;2023-05-10T10:14:25;21.70;;;16.60;;
15096;SDS011;7649;52.084;7.478;2023-05-10T10:16:54;20.77;;;16.57;;
15096;SDS011;7649;52.084;7.478;2023-05-10T10:19:35;22.47;;;16.60;;
15096;SDS011;7649;52.084;7.478;2023-05-10T10:22:04;20.47;;;15.30;;
15096;SDS011;7649;52.084;7.478;2023-05-10T10:24:32;24.80;;;17.23;;
15096;SDS011;7649;52.084;7.478;2023-05-10T10:27:02;19.50;;;15.90;;
15096;SDS011;7649;52.084;7.478;2023-05-10T10:29:34;20.73;;;16.60;;
15096;SDS011;7649;52.084;7.478;2023-05-10T10:32:03;29.35;;;18.58;;
15096;SDS011;7649;52.084;7.478;2023-05-10T10:34:36;22.35;;;18.48;;
15096;SDS011;7649;52.084;7.478;2023-05-10T10:37:06;23.33;;;18.30;;
15096;SDS011;7649;52.084;7.478;2023-05-10T10:39:35;22.27;;;16.98;;
15096;SDS011;7649;52.084;7.478;2023-05-10T10:42:03;22.85;;;16.45;;
15096;SDS011;7649;52.084;7.478;2023-05-10T10:44:38;23.42;;;17.02;;
15096;SDS011;7649;52.084;7.478;2023-05-10T10:47:10;21.42;;;16.60;;
15096;SDS011;7649;52.084;7.478;2023-05-10T10:50:02;24.92;;;16.75;;
15096;SDS011;7649;52.084;7.478;2023-05-10T10:52:31;21.48;;;17.10;;
15096;SDS011;7649;52.084;7.478;2023-05-10T10:55:01;27.73;;;18.27;;
15096;SDS011;7649;52.084;7.478;2023-05-10T10:57:31;20.48;;;16.42;;
15096;SDS011;7649;52.084;7.478;2023-05-10T11:00:17;20.80;;;16.60;;
15096;SDS011;7649;52.084;7.478;2023-05-10T11:02:46;18.52;;;15.95;;
15096;SDS011;7649;52.084;7.478;2023-05-10T11:05:32;18.90;;;16.60;;
15096;SDS011;7649;52.084;7.478;2023-05-10T11:08:06;21.30;;;17.30;;
15096;SDS011;7649;52.084;7.478;2023-05-10T11:10:35;18.35;;;15.98;;
15096;SDS011;7649;52.084;7.478;2023-05-10T11:13:04;15.90;;;13.90;;
15096;SDS011;7649;52.084;7.478;2023-05-10T11:15:33;13.55;;;12.15;;
15096;SDS011;7649;52.084;7.478;2023-05-10T11:18:16;14.05;;;12.05;;
15096;SDS011;7649;52.084;7.478;2023-05-10T11:20:48;14.93;;;12.90;;
15096;SDS011;7649;52.084;7.478;2023-05-10T11:23:18;14.02;;;12.63;;
15096;SDS011;7649;52.084;7.478;2023-05-10T11:25:47;15.68;;;13.63;;
15096;SDS011;7649;52.084;7.478;2023-05-10T11:28:16;17.88;;;14.85;;
15096;SDS011;7649;52.084;7.478;2023-05-10T11:30:46;18.27;;;14.45;;
15096;SDS011;7649;52.084;7.478;2023-05-10T11:33:15;15.95;;;14.32;;
15096;SDS011;7649;52.084;7.478;2023-05-10T11:35:43;16.83;;;14.55;;
15096;SDS011;7649;52.084;7.478;2023-05-10T11:38:13;19.42;;;13.85;;
15096;SDS011;7649;52.084;7.478;2023-05-10T11:40:41;16.10;;;14.32;;
15096;SDS011;7649;52.084;7.478;2023-05-10T11:43:10;15.25;;;13.65;;
15096;SDS011;7649;52.084;7.478;2023-05-10T11:45:39;19.15;;;15.50;;
15096;SDS011;7649;52.084;7.478;2023-05-10T11:48:07;18.08;;;15.25;;
15096;SDS011;7649;52.084;7.478;2023-05-10T11:50:36;16.13;;;14.15;;
15096;SDS011;7649;52.084;7.478;2023-05-10T11:53:04;17.40;;;14.57;;
15096;SDS011;7649;52.084;7.478;2023-05-10T11:55:34;16.92;;;15.13;;
15096;SDS011;7649;52.084;7.478;2023-05-10T11:58:02;16.48;;;13.85;;
15096;SDS011;7649;52.084;7.478;2023-05-10T12:00:31;15.40;;;12.48;;
15096;SDS011;7649;52.084;7.478;2023-05-10T12:03:00;12.90;;;10.98;;
15096;SDS011;7649;52.084;7.478;2023-05-10T12:05:31;12.95;;;11.60;;
15096;SDS011;7649;52.084;7.478;2023-05-10T12:08:12;13.38;;;12.13;;
15096;SDS011;7649;52.084;7.478;2023-05-10T12:10:42;12.05;;;10.80;;
15096;SDS011;7649;52.084;7.478;2023-05-10T12:13:10;12.80;;;11.25;;
15096;SDS011;7649;52.084;7.478;2023-05-10T12:15:40;12.45;;;11.25;;
15096;SDS011;7649;52.084;7.478;2023-05-10T12:18:08;20.98;;;17.80;;
15096;SDS011;7649;52.084;7.478;2023-05-10T12:20:38;16.38;;;14.38;;
15096;SDS011;7649;52.084;7.478;2023-05-10T12:23:07;16.08;;;14.38;;
15096;SDS011;7649;52.084;7.478;2023-05-10T12:25:36;18.35;;;14.93;;
15096;SDS011;7649;52.084;7.478;2023-05-10T12:28:08;18.48;;;16.52;;
15096;SDS011;7649;52.084;7.478;2023-05-10T12:30:36;18.08;;;16.17;;
15096;SDS011;7649;52.084;7.478;2023-05-10T12:33:07;19.55;;;17.35;;
15096;SDS011;7649;52.084;7.478;2023-05-10T12:35:43;19.35;;;16.58;;
15096;SDS011;7649;52.084;7.478;2023-05-10T12:38:27;21.08;;;16.17;;
15096;SDS011;7649;52.084;7.478;2023-05-10T12:40:57;18.50;;;15.32;;
15096;SDS011;7649;52.084;7.478;2023-05-10T12:43:27;16.20;;;14.52;;
15096;SDS011;7649;52.084;7.478;2023-05-10T12:45:55;21.90;;;15.18;;
15096;SDS011;7649;52.084;7.478;2023-05-10T12:48:24;16.70;;;13.52;;
15096;SDS011;7649;52.084;7.478;2023-05-10T12:50:52;16.60;;;14.02;;
15096;SDS011;7649;52.084;7.478;2023-05-10T12:53:20;17.88;;;14.20;;
15096;SDS011;7649;52.084;7.478;2023-05-10T12:55:48;16.80;;;15.02;;
15096;SDS011;7649;52.084;7.478;2023-05-10T12:58:16;17.05;;;14.57;;
15096;SDS011;7649;52.084;7.478;2023-05-10T13:01:02;16.77;;;14.77;;
15096;SDS011;7649;52.084;7.478;2023-05-10T13:03:31;16.13;;;13.85;;
15096;SDS011;7649;52.084;7.478;2023-05-10T13:05:59;16.10;;;13.85;;
15096;SDS011;7649;52.084;7.478;2023-05-10T13:08:27;16.30;;;13.65;;
15096;SDS011;7649;52.084;7.478;2023-05-10T13:10:59;19.05;;;14.10;;
15096;SDS011;7649;52.084;7.478;2023-05-10T13:13:28;15.70;;;14.00;;
15096;SDS011;7649;52.084;7.478;2023-05-10T13:15:56;17.15;;;14.45;;
15096;SDS011;7649;52.084;7.478;2023-05-10T13:18:25;16.70;;;14.52;;
15096;SDS011;7649;52.084;7.478;2023-05-10T13:20:54;16.33;;;13.68;;
15096;SDS011;7649;52.084;7.478;2023-05-10T13:23:22;17.40;;;13.73;;
15096;SDS011;7649;52.084;7.478;2023-05-10T13:25:51;15.82;;;14.15;;
15096;SDS011;7649;52.084;7.478;2023-05-10T13:28:19;17.40;;;13.40;;
15096;SDS011;7649;52.084;7.478;2023-05-10T13:30:47;14.98;;;12.45;;
15096;SDS011;7649;52.084;7.478;2023-05-10T13:33:15;13.48;;;11.27;;
15096;SDS011;7649;52.084;7.478;2023-05-10T13:35:45;15.15;;;11.20;;
15096;SDS011;7649;52.084;7.478;2023-05-10T13:38:13;12.88;;;10.80;;
15096;SDS011;7649;52.084;7.478;2023-05-10T13:40:41;13.65;;;11.63;;
15096;SDS011;7649;52.084;7.478;2023-05-10T13:43:09;14.45;;;11.82;;
15096;SDS011;7649;52.084;7.478;2023-05-10T13:45:38;15.65;;;13.05;;
15096;SDS011;7649;52.084;7.478;2023-05-10T13:48:06;16.92;;;13.65;;
15096;SDS011;7649;52.084;7.478;2023-05-10T13:50:34;19.23;;;14.23;;
15096;SDS011;7649;52.084;7.478;2023-05-10T13:53:04;18.50;;;13.70;;
15096;SDS011;7649;52.084;7.478;2023-05-10T13:55:32;18.52;;;13.52;;
15096;SDS011;7649;52.084;7.478;2023-05-10T13:58:01;19.90;;;14.80;;
15096;SDS011;7649;52.084;7.478;2023-05-10T14:00:29;19.17;;;14.45;;
15096;SDS011;7649;52.084;7.478;2023-05-10T14:02:58;17.48;;;13.85;;
15096;SDS011;7649;52.084;7.478;2023-05-10T14:05:26;16.38;;;14.57;;
15096;SDS011;7649;52.084;7.478;2023-05-10T14:07:55;14.50;;;11.70;;
15096;SDS011;7649;52.084;7.478;2023-05-10T14:10:24;13.55;;;11.57;;
15096;SDS011;7649;52.084;7.478;2023-05-10T14:12:53;15.50;;;12.73;;
15096;SDS011;7649;52.084;7.478;2023-05-10T14:15:21;14.30;;;11.75;;
15096;SDS011;7649;52.084;7.478;2023-05-10T14:17:49;17.17;;;12.98;;
15096;SDS011;7649;52.084;7.478;2023-05-10T14:20:17;19.52;;;14.82;;
15096;SDS011;7649;52.084;7.478;2023-05-10T14:22:46;17.75;;;14.88;;
15096;SDS011;7649;52.084;7.478;2023-05-10T14:25:14;16.17;;;12.65;;
15096;SDS011;7649;52.084;7.478;2023-05-10T14:27:44;15.38;;;13.68;;
15096;SDS011;7649;52.084;7.478;2023-05-10T14:30:12;14.90;;;13.18;;
15096;SDS011;7649;52.084;7.478;2023-05-10T14:32:41;18.23;;;13.95;;
15096;SDS011;7649;52.084;7.478;2023-05-10T14:35:09;15.90;;;13.05;;
15096;SDS011;7649;52.084;7.478;2023-05-10T14:37:41;15.43;;;13.00;;
15096;SDS011;7649;52.084;7.478;2023-05-10T14:40:09;16.92;;;13.85;;
15096;SDS011;7649;52.084;7.478;2023-05-10T14:42:38;17.00;;;14.18;;
15096;SDS011;7649;52.084;7.478;2023-05-10T14:45:09;17.00;;;12.82;;
15096;SDS011;7649;52.084;7.478;2023-05-10T14:47:38;15.57;;;12.23;;
15096;SDS011;7649;52.084;7.478;2023-05-10T14:50:06;17.67;;;13.48;;
15096;SDS011;7649;52.084;7.478;2023-05-10T14:52:35;15.88;;;14.27;;
15096;SDS011;7649;52.084;7.478;2023-05-10T14:55:03;16.08;;;13.73;;
15096;SDS011;7649;52.084;7.478;2023-05-10T14:57:32;14.88;;;12.65;;
15096;SDS011;7649;52.084;7.478;2023-05-10T15:00:00;12.95;;;11.52;;